Monday, March 02, 2015
04:59 UTC
  |  Log In   |  Register Free
Airport Search:

Live Oak County Airport
(8T6)

Live Oak County Airport Diagram
No Airport Diagram Available

FAA data valid effective January 08, 2015 - March 05, 2015 (unless otherwise noted).

 
 
 
 
 
 
 
 
 
 
 
 
 
 

Current Aviation Weather for Live Oak County Airport (8T6)

METAR data is unavailable for 8T6. The nearest METAR location is at KBEA (17.2 nm SE from 8T6).

The most recent METAR observation for KBEA was updated at: 0410
METAR Summary (Translated METAR)
KBEA
020355Z AUTO 02009KT 2SM BR OVC002 08/08 A3027 RMK AO2 T00750075
(17.2 nm SE from 8T6)
KNOG
020356Z AUTO 02009KT 10SM BKN003 OVC013 09/08 A3026 RMK AO2 SLP228 T00890083 $
(27.9 nm SE from 8T6)
TAF Summary (Translated TAF)
KALI
(39.3 nm SW from KBEA)
020320Z 0203/0224 35006KT 1SM -DZ BR OVC003 FM020800 35008KT 1/2SM -DZ FG OVC003 FM021800 01007KT 3SM BR OVC004
  Airport Weather Conditions for 8T6

Current weather conditions are
not available for 8T6


The nearest NOAA weather station
is at BEA, (17.2 nm SE from 8T6)
  
 Current Weather at BEA
46° F
Fog/Mist
North winds at 10.4 mph
BEA NOAA Radar

Pressure: 30.27 in
Humidity: 100%
Wind: North at 10.4 MPH (9 KT)
Dew Point: 45.5°F
Visibility: 2.00 mi


Airport Weather Forecast for 8T6

Translated METAR and TAF for KBEA
Translated METAR for KBEA (0459 UTC 02 March 2015)
found at http://aviationweather.gov/adds/metars/
 
METAR text: KBEA 020455Z AUTO 01008KT 2 1/2SM -RA OVC004 07/07 A3028 RMK AO2 T00730073
Conditions at: KBEA (BEEVILLE MUNI , TX, US) observed 0455 UTC 02 March 2015
Temperature: 7.3°C (45°F)
Dewpoint: 7.3°C (45°F) [RH = 100%]
Pressure (altimeter): 30.28 inches Hg (1025.5 mb)
Winds: from the N (10 degrees) at 9 MPH (8 knots; 4.2 m/s)
Visibility: 2.50 miles (4.02 km)
Ceiling: 400 feet AGL
Clouds: overcast cloud deck at 400 feet AGL
Weather: -RA  (light rain)
Translated TAF for KBEA

There is no translated TAF available for this airport

Find All Airport Services Find A Hotel Find A Rental Car Find A Golf Course Find A Restaurant $100 Hamburger



FBO's on the Field
FBO Company Facility Photos Services Transportation Aviation Fuel Prices: Prices include tax
Catering Weather Repair Courtesy Rental Type 100LL JetA JetA+ MOGAS 8087
 
Live Oak Co. Airport

This FBO has not yet been rated
FS:Avfuel
Last Updated: Feb-12
Login to update fuel prices
SS:
Contact Live Oak Co. AirportMore FBO Information
 
Add another FBO Facility Photos Catering Weather Repair Courtesy Rental Type 100LL JetA JetA+ MOGAS 8087
Services Transportation Aviation Fuel Prices: Prices include tax


model-print
model-print
model-print
model-print